createdAt,value
2022-08-07T00:00:25.652Z,1.80
2022-08-07T00:02:53.465Z,1.45
2022-08-07T00:05:23.716Z,2.03
2022-08-07T00:07:58.326Z,1.00
2022-08-07T00:10:29.682Z,1.58
2022-08-07T00:13:17.467Z,1.70
2022-08-07T00:15:52.104Z,1.75
2022-08-07T00:18:24.446Z,1.67
2022-08-07T00:21:07.894Z,1.60
2022-08-07T00:23:53.061Z,1.48
2022-08-07T00:26:59.416Z,1.80
2022-08-07T00:29:06.746Z,2.58
2022-08-07T00:31:37.288Z,1.95
2022-08-07T00:34:08.736Z,2.38
2022-08-07T00:36:38.568Z,1.73
2022-08-07T00:39:12.897Z,1.60
2022-08-07T00:41:53.616Z,1.70
2022-08-07T00:44:28.043Z,1.60
2022-08-07T00:46:55.471Z,2.00
2022-08-07T00:49:24.937Z,1.88
2022-08-07T00:52:11.089Z,2.58
2022-08-07T00:54:40.708Z,2.53
2022-08-07T00:57:09.233Z,2.10
2022-08-07T00:59:39.104Z,2.08
2022-08-07T01:02:14.070Z,2.22
2022-08-07T01:04:54.672Z,2.20
2022-08-07T01:10:05.935Z,1.40
2022-08-07T01:12:36.795Z,2.20
2022-08-07T01:15:07.600Z,1.55
2022-08-07T01:17:40.012Z,1.70
2022-08-07T01:20:10.523Z,1.77
2022-08-07T01:22:54.042Z,2.13
2022-08-07T01:25:54.479Z,2.05
2022-08-07T01:28:19.554Z,2.17
2022-08-07T01:30:52.785Z,2.08
2022-08-07T01:33:22.585Z,2.38
2022-08-07T01:35:53.391Z,2.03
2022-08-07T01:38:25.221Z,2.10
2022-08-07T01:40:58.850Z,1.85
2022-08-07T01:43:38.158Z,1.73
2022-08-07T01:48:46.779Z,2.47
2022-08-07T01:52:03.239Z,1.55
2022-08-07T01:54:32.629Z,1.27
2022-08-07T01:57:08.228Z,1.40
2022-08-07T01:59:43.676Z,1.90
2022-08-07T02:03:18.274Z,1.77
2022-08-07T02:05:47.891Z,1.92
2022-08-07T02:08:26.831Z,2.30
2022-08-07T02:10:58.060Z,1.83
2022-08-07T02:13:57.260Z,1.40
2022-08-07T02:16:19.738Z,2.20
2022-08-07T02:18:51.263Z,1.60
2022-08-07T02:21:19.491Z,1.53
2022-08-07T02:23:46.331Z,1.83
2022-08-07T02:26:32.504Z,2.00
2022-08-07T02:29:02.923Z,1.80
2022-08-07T02:31:32.568Z,1.70
2022-08-07T02:34:11.098Z,1.90
2022-08-07T02:36:45.968Z,1.50
2022-08-07T02:39:43.783Z,1.38
2022-08-07T02:42:10.117Z,2.13
2022-08-07T02:44:45.768Z,1.20
2022-08-07T02:47:19.441Z,1.55
2022-08-07T02:49:56.486Z,2.40
2022-08-07T02:52:39.543Z,1.60
2022-08-07T02:55:27.760Z,2.03
2022-08-07T02:58:04.837Z,1.50
2022-08-07T03:00:34.088Z,2.22
2022-08-07T03:03:06.036Z,1.50
2022-08-07T03:05:37.864Z,2.55
2022-08-07T03:08:10.056Z,1.83
2022-08-07T03:10:46.425Z,1.27
2022-08-07T03:13:19.339Z,1.30
2022-08-07T03:15:56.697Z,1.48
2022-08-07T03:18:34.953Z,1.48
2022-08-07T03:21:08.412Z,2.13
2022-08-07T03:24:20.196Z,1.20
2022-08-07T03:26:33.206Z,1.27
2022-08-07T03:29:10.534Z,1.77
2022-08-07T03:31:46.343Z,1.13
2022-08-07T03:34:18.809Z,1.38
2022-08-07T03:36:51.900Z,1.38
2022-08-07T03:39:56.570Z,1.48
2022-08-07T03:42:07.743Z,1.45
2022-08-07T03:44:37.046Z,1.20
2022-08-07T03:47:13.522Z,1.23
2022-08-07T03:49:52.132Z,1.42
2022-08-07T03:52:26.533Z,1.40
2022-08-07T03:55:06.495Z,1.60
2022-08-07T03:58:34.143Z,1.20
2022-08-07T04:00:33.673Z,1.30
2022-08-07T04:03:04.402Z,1.40
2022-08-07T04:05:40.603Z,1.52
2022-08-07T04:08:16.299Z,1.70
2022-08-07T04:10:54.617Z,1.30
2022-08-07T04:14:09.873Z,1.23
2022-08-07T04:16:31.435Z,1.60
2022-08-07T04:19:03.811Z,1.17
2022-08-07T04:21:33.403Z,1.50
2022-08-07T04:24:07.573Z,1.60
2022-08-07T04:26:40.902Z,1.60
2022-08-07T04:29:11.143Z,1.73
2022-08-07T04:32:09.791Z,1.85
2022-08-07T04:34:33.071Z,1.85
2022-08-07T04:37:01.758Z,1.52
2022-08-07T04:39:35.939Z,1.80
2022-08-07T04:42:04.571Z,1.55
2022-08-07T04:44:33.099Z,1.95
2022-08-07T04:47:09.022Z,2.53
2022-08-07T04:49:57.543Z,1.60
2022-08-07T04:52:50.943Z,1.80
2022-08-07T04:58:12.864Z,1.50
2022-08-07T05:01:50.647Z,1.67
2022-08-07T05:04:24.476Z,1.45
2022-08-07T05:07:09.670Z,1.65
2022-08-07T05:09:59.787Z,2.15
2022-08-07T05:12:46.204Z,1.48
2022-08-07T05:15:25.590Z,1.52
2022-08-07T05:18:08.568Z,1.40
2022-08-07T05:20:51.364Z,1.20
2022-08-07T05:23:29.863Z,1.50
2022-08-07T05:26:13.221Z,1.27
2022-08-07T05:28:50.727Z,1.85
2022-08-07T05:31:24.121Z,1.98
2022-08-07T05:34:05.541Z,1.55
2022-08-07T05:36:39.089Z,1.30
2022-08-07T05:40:17.842Z,1.35
2022-08-07T05:42:04.550Z,1.55
2022-08-07T05:44:37.379Z,2.42
2022-08-07T05:47:19.947Z,1.65
2022-08-07T05:49:51.110Z,1.83
2022-08-07T05:52:29.902Z,1.95
2022-08-07T05:55:07.239Z,1.98
2022-08-07T05:57:42.170Z,1.80
2022-08-07T06:00:16.610Z,1.45
2022-08-07T06:02:53.912Z,1.25
2022-08-07T06:05:25.856Z,2.13
2022-08-07T06:08:14.885Z,1.38
2022-08-07T06:10:46.897Z,1.58
2022-08-07T06:13:18.643Z,2.08
2022-08-07T06:15:49.805Z,1.75
2022-08-07T06:18:22.295Z,1.77
2022-08-07T06:22:14.979Z,1.13
2022-08-07T06:24:38.124Z,1.50
2022-08-07T06:26:30.607Z,1.15
2022-08-07T06:29:01.362Z,1.27
2022-08-07T06:31:38.399Z,1.55
2022-08-07T06:34:14.093Z,1.30
2022-08-07T06:36:42.116Z,1.85
2022-08-07T06:40:16.204Z,1.10
2022-08-07T06:42:05.944Z,1.33
2022-08-07T06:45:11.316Z,1.17
2022-08-07T06:47:57.429Z,1.20
2022-08-07T06:50:30.406Z,1.17
2022-08-07T06:52:59.684Z,1.10
2022-08-07T06:55:53.788Z,0.85
2022-08-07T06:58:21.510Z,1.17
2022-08-07T07:03:39.768Z,1.10
2022-08-07T07:06:12.695Z,1.13
2022-08-07T07:08:39.839Z,1.17
2022-08-07T07:12:07.673Z,0.90
2022-08-07T07:14:02.703Z,0.93
2022-08-07T07:16:34.144Z,1.20
2022-08-07T07:19:55.203Z,1.67
2022-08-07T07:22:12.086Z,1.00
2022-08-07T07:25:02.392Z,0.82
2022-08-07T07:27:35.754Z,0.88
2022-08-07T07:30:28.355Z,1.00
2022-08-07T07:33:01.815Z,1.00
2022-08-07T07:35:33.521Z,0.80
2022-08-07T07:38:02.204Z,0.85
2022-08-07T07:40:30.961Z,1.02
2022-08-07T07:42:58.118Z,0.60
2022-08-07T07:46:37.922Z,0.95
2022-08-07T07:48:36.162Z,0.80
2022-08-07T07:51:08.442Z,0.82
2022-08-07T07:53:51.229Z,0.80
2022-08-07T07:56:29.713Z,0.88
2022-08-07T07:58:59.034Z,0.77
2022-08-07T08:02:03.022Z,1.00
2022-08-07T08:04:14.923Z,0.80
2022-08-07T08:06:50.761Z,0.68
2022-08-07T08:09:22.703Z,0.70
2022-08-07T08:14:34.162Z,0.63
2022-08-07T08:20:17.329Z,0.50
2022-08-07T08:23:00.590Z,0.45
2022-08-07T08:25:49.701Z,0.60
2022-08-07T08:28:24.055Z,0.70
2022-08-07T08:31:05.660Z,0.52
2022-08-07T08:33:37.113Z,0.30
2022-08-07T08:36:06.929Z,0.38
2022-08-07T08:38:41.262Z,0.30
2022-08-07T08:41:19.309Z,0.40
2022-08-07T08:44:03.259Z,0.38
2022-08-07T08:47:09.765Z,0.75
2022-08-07T08:49:46.917Z,0.40
2022-08-07T08:52:40.602Z,0.47
2022-08-07T08:55:55.309Z,0.52
2022-08-07T08:58:54.434Z,0.50
2022-08-07T09:01:43.849Z,0.55
2022-08-07T09:04:28.809Z,0.68
2022-08-07T09:07:03.391Z,0.20
2022-08-07T09:09:44.679Z,0.40
2022-08-07T09:12:31.891Z,0.20
2022-08-07T09:16:20.166Z,0.30
2022-08-07T09:18:30.466Z,0.30
2022-08-07T09:21:06.541Z,0.20
2022-08-07T09:24:32.871Z,0.22
2022-08-07T09:26:56.975Z,0.22
2022-08-07T09:30:04.216Z,0.20
2022-08-07T09:32:40.348Z,0.20
2022-08-07T09:36:04.300Z,0.10
2022-08-07T09:38:50.241Z,0.30
2022-08-07T09:42:02.967Z,0.20
2022-08-07T09:47:25.813Z,0.25
2022-08-07T09:48:29.845Z,0.20
2022-08-07T09:52:16.462Z,0.30
2022-08-07T09:54:41.828Z,0.20
2022-08-07T09:57:50.095Z,0.20
2022-08-07T10:00:24.404Z,0.35
2022-08-07T10:04:05.724Z,0.20
2022-08-07T10:06:27.554Z,0.20
2022-08-07T10:10:00.292Z,0.30
2022-08-07T10:12:52.884Z,0.40
2022-08-07T10:15:37.594Z,0.20
2022-08-07T10:18:19.883Z,0.30
2022-08-07T10:21:19.824Z,0.10
2022-08-07T10:24:28.647Z,0.20
2022-08-07T10:27:10.261Z,0.20
2022-08-07T10:30:06.493Z,0.20
2022-08-07T10:33:12.968Z,0.20
2022-08-07T10:36:05.509Z,0.25
2022-08-07T10:38:59.116Z,0.10
2022-08-07T10:41:51.893Z,0.20
2022-08-07T10:44:33.882Z,0.20
2022-08-07T10:47:11.951Z,0.13
2022-08-07T10:49:50.956Z,0.13
2022-08-07T10:52:48.679Z,0.25
2022-08-07T10:55:37.653Z,0.30
2022-08-07T10:58:36.392Z,0.20
2022-08-07T11:01:51.929Z,0.38
2022-08-07T11:05:10.708Z,0.30
2022-08-07T11:07:59.105Z,0.30
2022-08-07T11:10:57.954Z,0.20
2022-08-07T11:14:43.941Z,0.17
2022-08-07T11:16:39.482Z,0.20
2022-08-07T11:19:34.328Z,0.25
2022-08-07T11:22:18.952Z,0.30
2022-08-07T11:25:09.790Z,0.20
2022-08-07T11:28:02.925Z,0.22
2022-08-07T11:30:52.499Z,0.30
2022-08-07T11:33:48.755Z,0.10
2022-08-07T11:36:25.403Z,0.28
2022-08-07T11:39:58.981Z,0.40
2022-08-07T11:42:21.281Z,0.35
2022-08-07T11:47:56.251Z,0.30
2022-08-07T11:50:31.824Z,0.17
2022-08-07T11:53:16.930Z,0.20
2022-08-07T11:56:15.565Z,0.38
2022-08-07T12:00:08.196Z,0.20
2022-08-07T12:02:31.800Z,0.30
2022-08-07T12:05:28.746Z,0.32
2022-08-07T12:08:31.591Z,0.20
2022-08-07T12:11:20.811Z,0.30
2022-08-07T12:14:16.449Z,0.17
2022-08-07T12:16:54.025Z,0.35
2022-08-07T12:20:03.244Z,0.10
2022-08-07T12:23:09.081Z,0.40
2022-08-07T12:26:05.800Z,0.50
2022-08-07T12:29:07.839Z,0.30
2022-08-07T12:32:02.129Z,0.30
2022-08-07T12:34:33.866Z,0.43
2022-08-07T12:37:01.427Z,0.28
2022-08-07T12:39:44.121Z,0.52
2022-08-07T12:42:22.834Z,0.30
2022-08-07T12:44:55.179Z,0.40
2022-08-07T12:47:27.133Z,0.20
2022-08-07T12:50:04.934Z,0.30
2022-08-07T12:53:18.062Z,0.63
2022-08-07T12:56:10.219Z,0.20
2022-08-07T12:58:40.137Z,0.30
2022-08-07T13:01:32.977Z,0.30
2022-08-07T13:04:34.035Z,0.40
2022-08-07T13:08:12.199Z,0.55
2022-08-07T13:10:44.042Z,0.45
2022-08-07T13:13:47.254Z,0.43
2022-08-07T13:16:38.035Z,0.30
2022-08-07T13:19:22.062Z,0.55
2022-08-07T13:22:19.993Z,0.40
2022-08-07T13:25:00.672Z,0.57
2022-08-07T13:28:13.809Z,0.40
2022-08-07T13:30:43.995Z,0.20
2022-08-07T13:34:30.241Z,0.40
2022-08-07T13:36:30.869Z,0.30
2022-08-07T13:39:04.935Z,0.28
2022-08-07T13:41:47.589Z,0.35
2022-08-07T13:44:26.155Z,0.32
2022-08-07T13:46:57.658Z,0.50
2022-08-07T13:50:33.801Z,0.30
2022-08-07T13:52:32.078Z,0.30
2022-08-07T13:55:07.111Z,0.40
2022-08-07T13:57:38.096Z,0.40
2022-08-07T14:00:26.455Z,0.50
2022-08-07T14:02:56.282Z,0.10
2022-08-07T14:05:24.944Z,0.30
2022-08-07T14:08:05.009Z,0.40
2022-08-07T14:10:41.704Z,0.40
2022-08-07T14:13:12.986Z,0.28
2022-08-07T14:15:44.739Z,0.43
2022-08-07T14:18:57.273Z,0.40
2022-08-07T14:22:04.009Z,0.47
2022-08-07T14:24:27.081Z,0.22
2022-08-07T14:27:01.957Z,0.30
2022-08-07T14:30:06.730Z,0.30
2022-08-07T14:32:46.030Z,0.45
2022-08-07T14:35:44.798Z,0.30
2022-08-07T14:38:26.438Z,0.52
2022-08-07T14:40:59.678Z,0.57
2022-08-07T14:43:57.180Z,0.22
2022-08-07T14:46:31.508Z,0.40
2022-08-07T14:49:55.967Z,0.40
2022-08-07T14:52:03.015Z,0.50
2022-08-07T14:54:35.823Z,0.40
2022-08-07T14:57:15.040Z,0.30
2022-08-07T15:00:05.238Z,0.10
2022-08-07T15:02:34.648Z,0.93
2022-08-07T15:05:03.782Z,0.35
2022-08-07T15:07:51.166Z,0.32
2022-08-07T15:10:26.360Z,0.35
2022-08-07T15:13:22.447Z,0.20
2022-08-07T15:15:58.056Z,0.45
2022-08-07T15:18:45.484Z,0.40
2022-08-07T15:21:59.444Z,0.30
2022-08-07T15:25:14.313Z,0.40
2022-08-07T15:27:23.141Z,0.30
2022-08-07T15:30:09.460Z,0.20
2022-08-07T15:33:01.303Z,0.50
2022-08-07T15:36:01.246Z,0.20
2022-08-07T15:38:31.184Z,0.13
2022-08-07T15:41:23.915Z,0.30
2022-08-07T15:44:00.792Z,0.30
2022-08-07T15:46:31.473Z,0.13
2022-08-07T15:49:15.264Z,0.30
2022-08-07T15:54:34.533Z,0.85
2022-08-07T15:57:03.362Z,0.40
2022-08-07T15:59:39.689Z,0.50
2022-08-07T16:02:22.176Z,0.32
2022-08-07T16:04:55.925Z,0.40
2022-08-07T16:08:32.989Z,0.38
2022-08-07T16:10:21.237Z,0.20
2022-08-07T16:13:17.986Z,0.40
2022-08-07T16:16:43.133Z,0.13
2022-08-07T16:19:59.675Z,0.40
2022-08-07T16:22:36.339Z,0.30
2022-08-07T16:25:54.692Z,0.28
2022-08-07T16:30:07.483Z,0.20
2022-08-07T16:31:57.397Z,0.32
2022-08-07T16:34:45.353Z,0.60
2022-08-07T16:38:05.786Z,0.70
2022-08-07T16:40:32.288Z,0.60
2022-08-07T16:43:18.480Z,0.30
2022-08-07T16:47:04.638Z,0.50
2022-08-07T16:50:20.583Z,0.52
2022-08-07T16:52:50.975Z,0.60
2022-08-07T16:55:16.459Z,0.93
2022-08-07T16:58:03.545Z,0.60
2022-08-07T17:00:40.497Z,0.55
2022-08-07T17:03:17.902Z,0.95
2022-08-07T17:06:31.107Z,0.90
2022-08-07T17:10:06.620Z,0.73
2022-08-07T17:12:35.911Z,0.70
2022-08-07T17:15:20.217Z,0.70
2022-08-07T17:17:47.596Z,0.70
2022-08-07T17:20:37.691Z,0.30
2022-08-07T17:23:23.020Z,0.68
2022-08-07T17:26:22.752Z,0.60
2022-08-07T17:30:15.638Z,0.90
2022-08-07T17:32:35.382Z,0.60
2022-08-07T17:35:49.963Z,0.57
2022-08-07T17:38:33.376Z,0.60
2022-08-07T17:41:12.455Z,0.60
2022-08-07T17:44:01.538Z,0.43
2022-08-07T17:47:16.910Z,0.65
2022-08-07T17:50:14.365Z,0.43
2022-08-07T17:52:52.677Z,0.60
2022-08-07T17:55:55.601Z,0.30
2022-08-07T17:58:33.590Z,0.25
2022-08-07T18:01:20.963Z,0.50
2022-08-07T18:04:38.020Z,0.25
2022-08-07T18:07:20.219Z,0.30
2022-08-07T18:10:06.250Z,0.30
2022-08-07T18:12:53.146Z,0.25
2022-08-07T18:15:32.571Z,0.20
2022-08-07T18:21:01.433Z,0.20
2022-08-07T18:21:38.269Z,0.30
2022-08-07T18:24:34.014Z,0.20
2022-08-07T18:27:38.724Z,0.38
2022-08-07T18:30:31.645Z,0.20
2022-08-07T18:33:15.975Z,0.60
2022-08-07T18:36:32.954Z,0.60
2022-08-07T18:40:07.757Z,1.08
2022-08-07T18:42:16.369Z,0.88
2022-08-07T18:45:43.596Z,0.35
2022-08-07T18:48:05.952Z,0.35
2022-08-07T18:50:46.756Z,0.10
2022-08-07T18:55:57.571Z,0.10
2022-08-07T18:58:51.099Z,0.05
2022-08-07T19:02:32.725Z,0.10
2022-08-07T19:04:54.899Z,0.20
2022-08-07T19:07:56.886Z,0.40
2022-08-07T19:10:49.902Z,0.60
2022-08-07T19:13:24.488Z,0.63
2022-08-07T19:17:00.513Z,0.50
2022-08-07T19:19:04.890Z,0.30
2022-08-07T19:21:53.504Z,0.40
2022-08-07T19:24:38.393Z,0.28
2022-08-07T19:28:30.838Z,0.30
2022-08-07T19:31:02.152Z,0.25
2022-08-07T19:32:54.259Z,0.15
2022-08-07T19:35:28.422Z,0.22
2022-08-07T19:38:04.317Z,0.20
2022-08-07T19:40:49.879Z,0.32
2022-08-07T19:43:49.977Z,0.30
2022-08-07T19:46:12.188Z,0.30
2022-08-07T19:48:53.764Z,0.30
2022-08-07T19:51:50.968Z,0.28
2022-08-07T19:54:33.335Z,0.30
2022-08-07T19:58:01.869Z,0.10
2022-08-07T19:59:54.542Z,0.30
2022-08-07T20:02:32.321Z,0.30
2022-08-07T20:05:00.808Z,0.30
2022-08-07T20:07:47.008Z,0.25
2022-08-07T20:10:35.218Z,0.50
2022-08-07T20:13:33.048Z,0.40
2022-08-07T20:16:02.693Z,0.40
2022-08-07T20:18:33.759Z,0.32
2022-08-07T20:21:21.034Z,0.45
2022-08-07T20:23:54.350Z,0.30
2022-08-07T20:26:29.874Z,0.30
2022-08-07T20:29:10.613Z,0.28
2022-08-07T20:31:48.143Z,0.40
2022-08-07T20:34:34.362Z,0.70
2022-08-07T20:37:06.329Z,0.40
2022-08-07T20:40:02.978Z,0.50
2022-08-07T20:42:24.056Z,0.70
2022-08-07T20:44:52.546Z,0.32
2022-08-07T20:47:25.938Z,0.30
2022-08-07T20:50:13.260Z,0.40
2022-08-07T20:52:51.382Z,0.40
2022-08-07T20:55:23.798Z,0.50
2022-08-07T20:58:03.265Z,0.68
2022-08-07T21:00:46.964Z,0.70
2022-08-07T21:03:23.196Z,0.40
2022-08-07T21:06:25.948Z,0.52
2022-08-07T21:09:14.175Z,0.50
2022-08-07T21:11:50.154Z,0.43
2022-08-07T21:14:32.668Z,0.40
2022-08-07T21:18:01.977Z,0.60
2022-08-07T21:20:05.262Z,0.50
2022-08-07T21:22:44.782Z,0.30
2022-08-07T21:25:17.932Z,0.50
2022-08-07T21:28:10.259Z,0.60
2022-08-07T21:30:57.626Z,0.50
2022-08-07T21:36:40.126Z,0.68
2022-08-07T21:39:48.177Z,0.70
2022-08-07T21:42:42.902Z,0.60
2022-08-07T21:46:08.776Z,0.80
2022-08-07T21:48:27.748Z,0.77
2022-08-07T21:51:05.621Z,0.70
2022-08-07T21:53:37.093Z,0.80
2022-08-07T21:56:37.743Z,0.82
2022-08-07T22:00:02.853Z,0.88
2022-08-07T22:02:52.454Z,0.82
2022-08-07T22:05:45.544Z,1.00
2022-08-07T22:08:10.555Z,0.63
2022-08-07T22:10:38.520Z,0.82
2022-08-07T22:13:13.609Z,0.82
2022-08-07T22:16:44.595Z,0.70
2022-08-07T22:18:38.257Z,0.90
2022-08-07T22:21:16.809Z,0.77
2022-08-07T22:23:53.310Z,0.85
2022-08-07T22:26:24.810Z,0.93
2022-08-07T22:29:13.754Z,0.90
2022-08-07T22:31:59.545Z,0.60
2022-08-07T22:34:35.812Z,0.98
2022-08-07T22:37:16.468Z,0.80
2022-08-07T22:40:04.811Z,0.90
2022-08-07T22:42:34.109Z,0.80
2022-08-07T22:45:10.987Z,1.00
2022-08-07T22:47:57.896Z,0.70
2022-08-07T22:51:20.561Z,0.70
2022-08-07T22:54:07.946Z,0.88
2022-08-07T22:56:57.363Z,1.00
2022-08-07T22:59:41.469Z,0.75
2022-08-07T23:02:22.337Z,0.70
2022-08-07T23:04:57.815Z,0.70
2022-08-07T23:08:07.293Z,0.80
2022-08-07T23:10:56.565Z,0.73
2022-08-07T23:13:48.590Z,0.77
2022-08-07T23:16:55.276Z,0.80
2022-08-07T23:20:21.049Z,0.70
2022-08-07T23:23:13.794Z,0.68
2022-08-07T23:26:11.229Z,0.60
2022-08-07T23:29:02.773Z,0.65
2022-08-07T23:34:21.865Z,0.60
2022-08-07T23:35:19.685Z,0.82
2022-08-07T23:38:08.277Z,0.60
2022-08-07T23:40:56.239Z,0.85
2022-08-07T23:43:51.296Z,0.80
2022-08-07T23:46:43.747Z,0.93
2022-08-07T23:49:51.083Z,1.10
2022-08-07T23:52:58.104Z,1.30
2022-08-07T23:55:53.602Z,1.20
2022-08-07T23:58:36.379Z,0.80
